createdAt,value
2018-09-29T05:13:40.695Z,2.51
2018-09-29T05:14:40.240Z,2.45
2018-09-29T05:15:40.166Z,2.55
2018-09-29T05:16:40.216Z,2.48
2018-09-29T05:17:40.113Z,2.48
2018-09-29T05:18:40.174Z,2.40
2018-09-29T05:19:40.069Z,2.41
2018-09-29T05:20:40.063Z,2.53
2018-09-29T05:21:40.102Z,2.38
2018-09-29T05:22:40.488Z,2.37
2018-09-29T05:23:40.018Z,2.41
2018-09-29T05:24:40.006Z,2.43
2018-09-29T05:25:39.993Z,2.38
2018-09-29T05:26:40.131Z,2.44
2018-09-29T05:27:39.987Z,2.45
2018-09-29T05:28:40.147Z,2.43
2018-09-29T05:29:39.955Z,2.47
2018-09-29T05:30:39.952Z,2.48
2018-09-29T05:31:52.566Z,2.41
2018-09-29T05:32:40.345Z,2.45
2018-09-29T05:33:40.017Z,2.33
2018-09-29T05:34:40.036Z,2.36
2018-09-29T05:35:40.046Z,2.38
2018-09-29T05:36:40.111Z,2.43
2018-09-29T05:37:41.296Z,2.51
2018-09-29T05:39:55.810Z,2.56
2018-09-29T05:47:14.989Z,2.44
2018-09-29T05:48:14.637Z,2.37
2018-09-29T05:52:23.597Z,2.47
2018-09-29T05:57:54.562Z,2.44
2018-09-29T05:58:54.283Z,2.48
2018-09-29T05:59:54.480Z,2.43
2018-09-29T06:01:11.563Z,2.50
2018-09-29T06:05:15.647Z,2.56
2018-09-29T06:07:42.873Z,2.53
2018-09-29T06:08:42.544Z,2.51
2018-09-29T06:09:42.487Z,2.53
2018-09-29T06:10:42.360Z,2.48
2018-09-29T06:11:42.246Z,2.53
2018-09-29T06:12:42.215Z,2.51
2018-09-29T06:13:42.198Z,2.47
2018-09-29T06:14:42.187Z,2.53
2018-09-29T06:15:42.162Z,2.58
2018-09-29T06:16:42.143Z,2.56
2018-09-29T06:17:42.242Z,2.58
2018-09-29T06:18:42.225Z,2.61
2018-09-29T06:19:42.119Z,2.65
2018-09-29T06:20:42.181Z,2.63
2018-09-29T06:21:42.205Z,2.68
2018-09-29T06:22:42.149Z,2.69
2018-09-29T06:23:42.131Z,2.63
2018-09-29T06:24:42.101Z,2.73
2018-09-29T06:25:42.195Z,2.80
2018-09-29T06:26:42.053Z,2.81
2018-09-29T06:27:42.107Z,2.77
2018-09-29T06:28:42.098Z,2.76
2018-09-29T06:29:42.084Z,2.89
2018-09-29T06:30:42.929Z,2.84
2018-09-29T06:31:42.016Z,2.92
2018-09-29T06:36:28.314Z,2.89
2018-09-29T06:44:25.584Z,3.08
2018-09-29T06:45:25.353Z,3.13
2018-09-29T06:46:25.305Z,3.19
2018-09-29T06:47:25.242Z,3.19
2018-09-29T06:48:25.169Z,3.22
2018-09-29T06:49:25.161Z,3.28
2018-09-29T06:50:25.141Z,3.25
2018-09-29T06:51:25.154Z,3.19
2018-09-29T06:52:25.142Z,3.26
2018-09-29T06:53:25.111Z,3.35
2018-09-29T06:54:25.108Z,3.45
2018-09-29T06:55:25.082Z,3.53
2018-09-29T06:56:25.111Z,3.53
2018-09-29T06:57:25.080Z,3.53
2018-09-29T06:58:25.049Z,3.56
2018-09-29T06:59:25.041Z,3.59
2018-09-29T07:00:25.039Z,3.72
2018-09-29T07:01:25.099Z,3.63
2018-09-29T07:02:25.012Z,3.74
2018-09-29T07:03:25.081Z,3.84
2018-09-29T07:04:25.435Z,3.77
2018-09-29T07:05:25.019Z,3.95
2018-09-29T07:06:24.973Z,3.95
2018-09-29T07:07:24.985Z,3.90
2018-09-29T07:08:24.940Z,3.96
2018-09-29T07:09:24.933Z,3.95
2018-09-29T07:10:24.922Z,4.08
2018-09-29T07:11:24.963Z,4.17
2018-09-29T07:12:24.930Z,4.14
2018-09-29T07:13:24.918Z,4.29
2018-09-29T07:14:24.898Z,4.31
2018-09-29T07:15:24.871Z,4.34
2018-09-29T07:16:24.851Z,4.39
2018-09-29T07:17:24.881Z,4.50
2018-09-29T07:18:24.849Z,4.50
2018-09-29T07:19:24.841Z,4.49
2018-09-29T07:20:24.859Z,4.56
2018-09-29T07:21:24.866Z,4.54
2018-09-29T07:22:24.795Z,4.67
2018-09-29T07:23:24.868Z,4.61
2018-09-29T07:24:24.766Z,4.64
2018-09-29T07:25:24.819Z,4.79
2018-09-29T07:26:24.873Z,4.79
2018-09-29T07:27:24.729Z,4.88
2018-09-29T07:28:24.721Z,4.93
2018-09-29T07:29:24.776Z,4.96
2018-09-29T07:30:24.711Z,5.11
2018-09-29T07:31:24.740Z,5.05
2018-09-29T07:32:24.728Z,5.09
2018-09-29T07:33:24.697Z,5.12
2018-09-29T07:34:24.670Z,5.09
2018-09-29T07:35:24.654Z,5.17
2018-09-29T07:36:24.642Z,5.24
2018-09-29T07:37:24.625Z,5.27
2018-09-29T07:38:24.618Z,5.40
2018-09-29T07:39:24.703Z,5.45
2018-09-29T07:40:24.599Z,5.48
2018-09-29T07:41:24.582Z,5.55
2018-09-29T07:42:24.578Z,5.60
2018-09-29T07:43:24.569Z,5.73
2018-09-29T07:44:24.567Z,5.80
2018-09-29T07:45:24.646Z,5.95
2018-09-29T07:46:24.541Z,6.01
2018-09-29T07:47:24.524Z,6.16
2018-09-29T07:48:24.544Z,6.33
2018-09-29T07:49:24.497Z,6.51
2018-09-29T07:50:24.511Z,6.63
2018-09-29T07:51:24.487Z,6.65
2018-09-29T07:52:24.458Z,6.69
2018-09-29T07:53:24.448Z,6.83
2018-09-29T07:54:24.523Z,6.89
2018-09-29T07:55:24.432Z,7.07
2018-09-29T07:56:24.455Z,7.32
2018-09-29T07:57:24.448Z,7.29
2018-09-29T07:58:24.403Z,7.45
2018-09-29T07:59:24.427Z,7.60
2018-09-29T08:00:24.742Z,7.73
2018-09-29T08:36:31.007Z,10.20
2018-09-29T08:41:29.180Z,11.05
2018-09-29T08:42:28.790Z,11.39
2018-09-29T08:43:28.820Z,11.59
2018-09-29T08:44:29.055Z,11.74
2018-09-29T08:45:30.540Z,11.77
2018-09-29T08:49:01.350Z,11.72
2018-09-29T08:50:01.326Z,11.85
2018-09-29T08:51:01.638Z,12.15
2018-09-29T08:52:01.017Z,12.33
2018-09-29T08:53:01.029Z,12.48
2018-09-29T08:54:01.084Z,12.80
2018-09-29T08:55:01.005Z,12.94
2018-09-29T08:56:01.139Z,12.98
2018-09-29T08:57:00.970Z,13.21
2018-09-29T08:58:00.940Z,13.04
2018-09-29T08:59:03.658Z,13.27
2018-09-29T09:07:15.233Z,13.68
2018-09-29T09:10:46.526Z,13.84
2018-09-29T09:11:48.311Z,13.99
2018-09-29T09:14:16.543Z,14.44
2018-09-29T09:25:44.658Z,15.04
2018-09-29T09:36:44.612Z,14.91
2018-09-29T09:37:43.749Z,14.93
2018-09-29T09:38:43.845Z,14.98
2018-09-29T09:39:43.620Z,14.83
2018-09-29T09:40:43.674Z,14.90
2018-09-29T09:41:43.599Z,14.97
2018-09-29T09:42:43.626Z,15.05
2018-09-29T09:43:43.635Z,14.97
2018-09-29T09:44:43.586Z,14.82
2018-09-29T09:45:43.578Z,14.85
2018-09-29T09:46:43.567Z,14.90
2018-09-29T09:47:43.525Z,14.90
2018-09-29T09:48:43.525Z,14.82
2018-09-29T09:49:43.711Z,14.83
2018-09-29T09:50:43.622Z,14.71
2018-09-29T09:51:43.584Z,14.53
2018-09-29T09:52:43.508Z,14.49
2018-09-29T09:53:43.465Z,14.41
2018-09-29T09:54:43.505Z,14.44
2018-09-29T09:55:48.647Z,14.30
2018-09-29T09:59:31.941Z,14.23
2018-09-29T10:00:31.680Z,14.20
2018-09-29T10:26:04.169Z,13.41
2018-09-29T10:31:52.644Z,13.48
2018-09-29T10:45:54.577Z,13.65
2018-09-29T10:46:52.558Z,13.59
2018-09-29T10:47:52.555Z,13.63
2018-09-29T10:48:56.506Z,13.50
2018-09-29T10:57:53.701Z,13.59
2018-09-29T11:02:10.637Z,13.57
2018-09-29T11:03:10.471Z,13.63
2018-09-29T11:04:11.275Z,13.57
2018-09-29T11:05:10.745Z,13.65
2018-09-29T11:06:24.004Z,13.69
2018-09-29T11:07:10.464Z,13.68
2018-09-29T11:08:10.434Z,13.71
2018-09-29T11:09:10.614Z,13.71
2018-09-29T11:10:10.288Z,13.71
2018-09-29T11:11:10.294Z,13.73
2018-09-29T11:12:10.230Z,13.73
2018-09-29T11:13:10.185Z,13.72
2018-09-29T11:14:10.282Z,13.83
2018-09-29T11:15:10.181Z,13.90
2018-09-29T11:16:10.151Z,13.93
2018-09-29T11:17:10.500Z,13.87
2018-09-29T11:19:29.678Z,14.08
2018-09-29T11:20:29.280Z,14.08
2018-09-29T11:21:29.306Z,14.13
2018-09-29T11:22:29.349Z,14.19
2018-09-29T11:23:29.079Z,14.20
2018-09-29T11:24:29.103Z,14.36
2018-09-29T11:25:29.014Z,14.48
2018-09-29T11:26:29.098Z,14.48
2018-09-29T11:27:28.997Z,14.59
2018-09-29T11:28:29.260Z,14.64
2018-09-29T11:31:03.401Z,14.83
2018-09-29T11:34:51.560Z,15.07
2018-09-29T11:35:51.012Z,15.13
2018-09-29T11:36:51.530Z,15.25
2018-09-29T11:37:50.960Z,15.33
2018-09-29T11:38:50.954Z,15.31
2018-09-29T11:39:50.936Z,15.43
2018-09-29T11:40:50.847Z,15.52
2018-09-29T11:41:50.817Z,15.52
2018-09-29T11:42:50.899Z,15.58
2018-09-29T11:43:50.896Z,15.67
2018-09-29T11:59:46.498Z,17.05
2018-09-29T12:00:46.452Z,17.20
2018-09-29T12:01:47.093Z,17.22
2018-09-29T12:02:46.225Z,17.18
2018-09-29T12:03:46.124Z,16.92
2018-09-29T12:04:46.102Z,16.87
2018-09-29T12:05:46.107Z,17.06
2018-09-29T12:06:46.536Z,17.17
2018-09-29T12:07:46.092Z,17.38
2018-09-29T12:08:46.028Z,17.51
2018-09-29T12:09:46.246Z,17.77
2018-09-29T12:10:45.992Z,18.04
2018-09-29T12:11:45.979Z,18.13
2018-09-29T12:12:46.002Z,18.14
2018-09-29T12:13:45.967Z,18.23
2018-09-29T12:14:45.982Z,18.49
2018-09-29T12:15:45.938Z,18.59
2018-09-29T12:16:46.049Z,18.66
2018-09-29T12:17:55.467Z,18.54
2018-09-29T12:18:46.061Z,18.47
2018-09-29T12:19:53.704Z,18.62
2018-09-29T12:23:36.283Z,18.68
2018-09-29T12:24:36.075Z,18.91
2018-09-29T12:25:36.008Z,18.99
2018-09-29T12:26:36.064Z,19.10
2018-09-29T12:27:35.982Z,19.28
2018-09-29T12:28:35.937Z,19.42
2018-09-29T12:29:36.038Z,19.52
2018-09-29T12:30:35.930Z,19.70
2018-09-29T12:31:35.874Z,19.89
2018-09-29T12:32:35.872Z,19.95
2018-09-29T12:33:35.902Z,20.01
2018-09-29T12:34:35.871Z,20.05
2018-09-29T12:35:35.840Z,20.19
2018-09-29T12:36:35.893Z,20.08
2018-09-29T12:37:35.939Z,20.04
2018-09-29T12:38:35.847Z,20.19
2018-09-29T12:39:35.844Z,20.31
2018-09-29T12:40:35.807Z,20.35
2018-09-29T12:41:35.776Z,20.31
2018-09-29T12:42:35.795Z,20.30
2018-09-29T12:43:35.789Z,20.38
2018-09-29T12:44:35.812Z,20.38
2018-09-29T12:45:35.781Z,20.46
2018-09-29T12:46:35.754Z,20.54
2018-09-29T12:47:35.714Z,20.48
2018-09-29T12:48:35.750Z,20.30
2018-09-29T12:49:35.687Z,20.25
2018-09-29T12:50:35.678Z,20.33
2018-09-29T12:51:35.874Z,20.31
2018-09-29T12:52:35.658Z,20.37
2018-09-29T12:53:35.646Z,20.30
2018-09-29T12:54:35.690Z,20.41
2018-09-29T12:55:35.626Z,20.58
2018-09-29T12:56:35.619Z,20.69
2018-09-29T12:57:35.632Z,20.76
2018-09-29T12:58:35.602Z,20.83
2018-09-29T12:59:35.613Z,20.91
2018-09-29T13:00:35.573Z,20.88
2018-09-29T13:01:35.556Z,20.90
2018-09-29T13:02:35.546Z,20.91
2018-09-29T13:03:35.557Z,20.85
2018-09-29T13:04:35.537Z,20.88
2018-09-29T13:05:35.534Z,20.63
2018-09-29T13:06:35.630Z,20.53
2018-09-29T13:07:35.501Z,20.54
2018-09-29T13:08:35.488Z,20.69
2018-09-29T13:09:35.509Z,20.75
2018-09-29T13:10:35.462Z,20.73
2018-09-29T13:11:35.460Z,20.81
2018-09-29T13:12:35.485Z,20.97
2018-09-29T13:13:35.447Z,21.00
2018-09-29T13:14:35.419Z,20.91
2018-09-29T13:15:35.425Z,20.91
2018-09-29T13:16:35.399Z,20.75
2018-09-29T13:19:30.160Z,20.88
2018-09-29T13:20:28.402Z,20.73
2018-09-29T13:21:28.444Z,20.82
2018-09-29T13:22:28.334Z,20.87
2018-09-29T13:23:28.337Z,21.12
2018-09-29T13:24:28.355Z,21.22
2018-09-29T13:25:28.420Z,21.27
2018-09-29T13:26:28.559Z,21.27
2018-09-29T13:27:28.286Z,21.48
2018-09-29T13:28:28.270Z,21.43
2018-09-29T13:29:28.327Z,21.58
2018-09-29T13:30:28.367Z,21.71
2018-09-29T13:31:28.328Z,21.73
2018-09-29T13:32:28.233Z,21.70
2018-09-29T13:33:28.215Z,21.67
2018-09-29T13:34:28.212Z,21.74
2018-09-29T13:35:28.211Z,21.63
2018-09-29T13:36:28.192Z,21.56
2018-09-29T13:37:28.194Z,21.64
2018-09-29T13:38:28.163Z,21.73
2018-09-29T13:39:28.256Z,21.82
2018-09-29T13:40:28.166Z,21.91
2018-09-29T13:41:28.143Z,21.75
2018-09-29T13:42:28.237Z,21.68
2018-09-29T13:43:28.122Z,21.73
2018-09-29T13:44:28.164Z,21.63
2018-09-29T13:45:28.100Z,21.48
2018-09-29T13:46:28.131Z,21.28
2018-09-29T13:47:28.104Z,21.42
2018-09-29T13:48:28.148Z,21.51
2018-09-29T13:49:28.104Z,21.45
2018-09-29T13:50:28.044Z,21.56
2018-09-29T13:51:28.108Z,21.67
2018-09-29T13:52:28.103Z,21.73
2018-09-29T13:53:28.842Z,21.70
2018-09-29T13:54:28.000Z,21.59
2018-09-29T13:55:27.984Z,21.45
2018-09-29T13:56:27.970Z,21.46
2018-09-29T13:57:28.085Z,21.49
2018-09-29T13:58:29.085Z,21.49
2018-09-29T14:06:30.273Z,22.36
2018-09-29T14:07:29.889Z,22.09
2018-09-29T14:08:29.894Z,22.20
2018-09-29T14:09:29.854Z,22.24
2018-09-29T14:10:29.768Z,22.29
2018-09-29T14:11:29.704Z,22.24
2018-09-29T14:12:29.703Z,22.42
2018-09-29T14:13:29.732Z,22.51
2018-09-29T14:14:29.680Z,22.70
2018-09-29T14:15:29.653Z,22.91
2018-09-29T14:16:29.646Z,23.14
2018-09-29T14:17:29.746Z,23.06
2018-09-29T14:18:29.656Z,23.09
2018-09-29T14:19:29.613Z,22.99
2018-09-29T14:22:24.896Z,22.78
2018-09-29T14:23:24.367Z,22.48
2018-09-29T14:24:24.554Z,22.27
2018-09-29T14:25:24.453Z,22.29
2018-09-29T14:26:24.271Z,22.02
2018-09-29T14:27:24.307Z,21.77
2018-09-29T14:28:24.335Z,21.66
2018-09-29T14:29:24.294Z,21.58
2018-09-29T14:30:25.168Z,21.61
2018-09-29T14:31:24.510Z,21.73
2018-09-29T14:32:25.243Z,21.70
2018-09-29T14:33:24.366Z,21.77
2018-09-29T14:34:25.161Z,21.79
2018-09-29T14:35:24.206Z,21.74
2018-09-29T14:36:24.314Z,21.70
2018-09-29T14:37:24.720Z,21.73
2018-09-29T14:38:24.225Z,21.64
2018-09-29T14:39:24.169Z,21.61
2018-09-29T14:43:15.275Z,21.37
2018-09-29T14:44:14.827Z,21.38
2018-09-29T14:45:14.954Z,21.24
2018-09-29T14:46:14.761Z,21.18
2018-09-29T14:47:14.508Z,21.11
2018-09-29T14:48:15.072Z,20.94
2018-09-29T14:49:14.511Z,20.93
2018-09-29T14:50:14.550Z,20.82
2018-09-29T14:51:15.129Z,20.75
2018-09-29T14:52:14.519Z,20.69
2018-09-29T14:53:15.097Z,20.68
2018-09-29T14:54:14.446Z,20.48
2018-09-29T14:55:14.515Z,20.37
2018-09-29T14:56:14.546Z,20.25
2018-09-29T14:57:14.433Z,20.17
2018-09-29T14:58:15.077Z,20.15
2018-09-29T14:59:14.372Z,20.13
2018-09-29T15:00:14.350Z,20.02
2018-09-29T15:01:14.456Z,19.82
2018-09-29T15:02:15.130Z,19.79
2018-09-29T15:03:14.474Z,19.70
2018-09-29T15:04:14.340Z,19.57
2018-09-29T15:05:14.417Z,19.53
2018-09-29T15:06:14.326Z,19.47
2018-09-29T15:07:14.318Z,19.39
2018-09-29T15:08:14.400Z,19.40
2018-09-29T15:09:14.362Z,19.49
2018-09-29T15:10:15.142Z,19.28
2018-09-29T15:15:10.881Z,18.82
2018-09-29T15:16:10.691Z,18.66
2018-09-29T15:17:10.518Z,18.56
2018-09-29T15:18:10.392Z,18.50
2018-09-29T15:19:10.338Z,18.47
2018-09-29T15:20:13.480Z,18.36
2018-09-29T15:21:10.479Z,18.34
2018-09-29T15:22:10.256Z,18.31
2018-09-29T15:23:11.479Z,18.28
2018-09-29T15:24:10.292Z,18.23
2018-09-29T15:25:10.222Z,18.17
2018-09-29T15:26:10.286Z,18.02
2018-09-29T15:27:10.255Z,17.94
2018-09-29T15:28:10.321Z,17.94
2018-09-29T15:29:10.235Z,17.92
2018-09-29T15:30:10.210Z,17.86
2018-09-29T15:31:10.237Z,17.79
2018-09-29T15:32:10.144Z,17.77
2018-09-29T15:33:10.153Z,17.70
2018-09-29T15:34:10.149Z,17.74
2018-09-29T15:35:10.149Z,17.60
2018-09-29T15:36:10.094Z,17.51
2018-09-29T15:37:10.143Z,17.43
2018-09-29T15:38:10.169Z,17.35
2018-09-29T15:39:10.081Z,17.35
2018-09-29T15:40:10.068Z,17.30
2018-09-29T15:41:10.078Z,17.18
2018-09-29T15:42:11.118Z,17.18
2018-09-29T15:43:10.021Z,17.27
2018-09-29T15:44:10.051Z,17.17
2018-09-29T15:45:10.181Z,17.02
2018-09-29T15:46:10.005Z,17.09
2018-09-29T15:47:10.000Z,17.00
2018-09-29T15:48:09.973Z,16.90
2018-09-29T15:49:09.989Z,16.96
2018-09-29T15:50:10.008Z,16.90
2018-09-29T15:51:09.951Z,16.87
2018-09-29T15:52:09.919Z,16.90
2018-09-29T15:53:09.964Z,16.90
2018-09-29T15:54:10.027Z,16.82
2018-09-29T15:55:10.156Z,16.82
2018-09-29T15:56:09.891Z,16.77
2018-09-29T15:57:10.178Z,16.73
2018-09-29T15:58:09.979Z,16.77
2018-09-29T15:59:09.964Z,16.54
2018-09-29T16:00:09.855Z,16.57
2018-09-29T16:01:09.859Z,16.44
2018-09-29T16:02:09.849Z,16.50
2018-09-29T16:03:09.803Z,16.45
2018-09-29T16:04:09.789Z,16.44
2018-09-29T16:05:09.929Z,16.40
2018-09-29T16:06:09.947Z,16.33
2018-09-29T16:07:10.009Z,16.30
2018-09-29T16:08:09.783Z,16.17
2018-09-29T16:09:09.914Z,16.17
2018-09-29T16:10:09.915Z,16.14
2018-09-29T16:11:09.802Z,16.22
2018-09-29T16:12:09.710Z,16.11
2018-09-29T16:13:09.758Z,16.01
2018-09-29T16:14:09.689Z,16.04
2018-09-29T16:15:09.671Z,15.91
2018-09-29T16:16:09.724Z,15.89
2018-09-29T16:17:09.665Z,15.78
2018-09-29T16:18:09.672Z,15.84
2018-09-29T16:19:09.704Z,15.68
2018-09-29T16:20:10.472Z,15.64
2018-09-29T16:21:09.677Z,15.58
2018-09-29T16:22:09.664Z,15.60
2018-09-29T16:23:09.658Z,15.48
2018-09-29T16:25:32.177Z,15.34
2018-09-29T16:26:31.745Z,15.37
2018-09-29T16:27:31.752Z,15.27
2018-09-29T16:28:31.730Z,15.33
2018-09-29T16:31:22.511Z,15.19
2018-09-29T16:38:17.133Z,14.91
2018-09-29T16:39:16.808Z,14.91
2018-09-29T16:40:16.568Z,14.94
2018-09-29T16:41:16.540Z,15.11
2018-09-29T16:42:16.723Z,15.09
2018-09-29T16:43:16.546Z,15.20
2018-09-29T16:44:16.486Z,15.18
2018-09-29T16:45:17.449Z,15.04
2018-09-29T16:46:16.477Z,15.19
2018-09-29T16:47:31.160Z,15.15
2018-09-29T16:48:19.490Z,15.05
2018-09-29T16:49:18.494Z,15.09
2018-09-29T16:50:16.628Z,15.03
2018-09-29T16:52:50.316Z,14.97
2018-09-29T16:53:49.725Z,14.93
2018-09-29T16:54:49.656Z,14.85
2018-09-29T16:55:50.064Z,14.80
2018-09-29T16:56:49.695Z,14.74
2018-09-29T16:57:49.655Z,14.75
2018-09-29T16:59:00.137Z,14.60
2018-09-29T16:59:50.556Z,14.63
2018-09-29T17:03:13.737Z,14.31
2018-09-29T17:04:13.678Z,14.34
2018-09-29T17:05:13.759Z,14.27
2018-09-29T17:06:13.219Z,14.17
2018-09-29T17:07:13.328Z,14.06
2018-09-29T17:09:26.425Z,13.96
2018-09-29T17:10:26.203Z,13.93
2018-09-29T17:11:26.090Z,13.86
2018-09-29T17:12:26.216Z,13.88
2018-09-29T17:13:26.051Z,13.80
2018-09-29T17:14:26.182Z,13.81
2018-09-29T17:15:26.030Z,13.63
2018-09-29T17:16:26.270Z,13.68
2018-09-29T17:17:26.256Z,13.57
2018-09-29T17:18:28.825Z,13.48
2018-09-29T17:19:27.720Z,13.46
2018-09-29T17:20:26.169Z,13.35
2018-09-29T17:21:26.083Z,13.25
2018-09-29T17:22:26.100Z,13.25
2018-09-29T17:23:26.696Z,13.19
2018-09-29T17:24:28.658Z,13.03
2018-09-29T17:25:26.024Z,13.09
2018-09-29T17:26:26.036Z,12.96
2018-09-29T17:27:26.017Z,12.95
2018-09-29T17:28:25.911Z,12.79
2018-09-29T17:29:25.922Z,12.77
2018-09-29T17:30:25.903Z,12.77
2018-09-29T17:31:25.893Z,12.73
2018-09-29T17:32:25.919Z,12.74
2018-09-29T17:35:06.281Z,12.51
2018-09-29T17:36:05.489Z,12.52
2018-09-29T17:37:05.313Z,12.44
2018-09-29T17:38:05.251Z,12.44
2018-09-29T17:39:05.983Z,12.38
2018-09-29T17:40:05.383Z,12.38
2018-09-29T17:41:07.948Z,12.19
2018-09-29T17:42:05.116Z,12.22
2018-09-29T17:43:05.136Z,12.13
2018-09-29T17:44:05.122Z,12.08
2018-09-29T17:45:05.122Z,12.00
2018-09-29T17:46:05.082Z,11.94
2018-09-29T17:47:05.130Z,11.94
2018-09-29T17:48:05.149Z,11.88
2018-09-29T17:49:05.040Z,11.82
2018-09-29T17:50:05.801Z,11.75
2018-09-29T17:51:16.358Z,11.62
2018-09-29T17:52:05.151Z,11.66
2018-09-29T17:53:05.056Z,11.60
2018-09-29T17:54:05.063Z,11.57
2018-09-29T17:55:05.103Z,11.51
2018-09-29T17:56:05.007Z,11.42
2018-09-29T17:57:04.987Z,11.41
2018-09-29T17:58:04.952Z,11.38
2018-09-29T17:59:04.992Z,11.36
2018-09-29T18:00:04.919Z,11.26
2018-09-29T18:01:04.948Z,11.21
2018-09-29T18:02:04.886Z,11.21
2018-09-29T18:03:04.946Z,11.13
2018-09-29T18:04:05.029Z,11.19
2018-09-29T18:05:06.994Z,11.08
2018-09-29T18:06:04.863Z,11.06
2018-09-29T18:07:04.947Z,10.90
2018-09-29T18:08:04.971Z,10.91
2018-09-29T18:09:04.927Z,10.93
2018-09-29T18:10:04.883Z,10.88
2018-09-29T18:11:04.797Z,10.78
2018-09-29T18:12:04.783Z,10.65
2018-09-29T18:13:04.765Z,10.69
2018-09-29T18:14:06.456Z,10.58
2018-09-29T18:15:04.871Z,10.62
2018-09-29T18:38:30.468Z,9.60
2018-09-29T18:39:29.310Z,9.71
2018-09-29T18:40:29.120Z,9.73
2018-09-29T18:41:29.255Z,9.59
2018-09-29T18:42:29.100Z,9.53
2018-09-29T18:43:29.007Z,9.59
2018-09-29T18:44:29.012Z,9.56
2018-09-29T18:45:29.020Z,9.45
2018-09-29T18:46:29.002Z,9.45
2018-09-29T18:50:20.503Z,9.40
2018-09-29T18:51:20.248Z,9.31
2018-09-29T18:58:35.945Z,9.10
2018-09-29T18:59:33.349Z,9.06
2018-09-29T19:11:47.608Z,8.78
2018-09-29T19:15:23.710Z,8.67
2018-09-29T19:16:23.741Z,8.63
2018-09-29T19:17:23.170Z,8.63
2018-09-29T19:18:23.091Z,8.70
2018-09-29T19:19:23.091Z,8.61
2018-09-29T19:20:23.114Z,8.68
2018-09-29T19:21:23.061Z,8.57
2018-09-29T19:22:22.988Z,8.57
2018-09-29T19:23:23.042Z,8.49
2018-09-29T19:24:23.121Z,8.52
2018-09-29T19:25:22.959Z,8.46
2018-09-29T19:26:22.946Z,8.43
2018-09-29T19:27:23.153Z,8.40
2018-09-29T19:28:22.931Z,8.36
2018-09-29T19:29:22.955Z,8.34
2018-09-29T19:30:22.911Z,8.28
2018-09-29T19:31:22.896Z,8.31
2018-09-29T19:32:22.936Z,8.29
2018-09-29T19:33:22.868Z,8.24
2018-09-29T19:34:22.876Z,8.21
2018-09-29T19:35:22.905Z,8.24
2018-09-29T19:36:23.646Z,8.24
2018-09-29T19:39:04.140Z,8.12
2018-09-29T19:40:03.786Z,8.07
2018-09-29T19:41:04.097Z,8.12
2018-09-29T19:42:03.561Z,8.10
2018-09-29T19:43:03.602Z,8.03
2018-09-29T19:44:03.646Z,8.04
2018-09-29T19:45:03.483Z,8.04
2018-09-29T19:46:03.477Z,7.95
2018-09-29T19:47:03.463Z,8.00
2018-09-29T19:48:03.490Z,8.03
2018-09-29T19:49:03.439Z,7.99
2018-09-29T19:50:03.453Z,7.99
2018-09-29T19:51:03.495Z,7.96
2018-09-29T19:52:03.402Z,7.89
2018-09-29T19:53:03.395Z,7.81
2018-09-29T19:54:03.410Z,7.85
2018-09-29T19:55:03.401Z,7.85
2018-09-29T19:56:03.373Z,7.88
2018-09-29T19:57:03.343Z,7.81
2018-09-29T19:58:03.334Z,7.77
2018-09-29T19:59:03.380Z,7.74
2018-09-29T20:00:03.440Z,7.69
2018-09-29T20:01:03.343Z,7.71
2018-09-29T20:15:49.296Z,7.44
2018-09-29T20:16:48.898Z,7.39
2018-09-29T20:17:48.829Z,7.39
2018-09-29T20:18:48.723Z,7.41
2018-09-29T20:19:48.713Z,7.32
2018-09-29T20:20:48.697Z,7.21
2018-09-29T20:21:48.696Z,7.32
2018-09-29T20:22:48.657Z,7.32
2018-09-29T20:23:48.657Z,7.30
2018-09-29T20:24:48.653Z,7.32
2018-09-29T20:25:48.626Z,7.18
2018-09-29T20:26:48.618Z,7.16
2018-09-29T20:27:48.606Z,7.19
2018-09-29T20:28:48.613Z,7.16
2018-09-29T20:29:48.608Z,7.18
2018-09-29T20:30:51.406Z,7.12
2018-09-29T20:31:48.650Z,7.14
2018-09-29T20:44:08.905Z,6.91
